sensor_id;sensor_type;location;lat;lon;timestamp;temperature;humidity
46364;DHT22;32071;49.036;9.344;2023-03-01T00:01:06;-0.30;99.90
46364;DHT22;32071;49.036;9.344;2023-03-01T00:03:32;-0.30;99.90
46364;DHT22;32071;49.036;9.344;2023-03-01T00:05:58;-0.30;99.90
46364;DHT22;32071;49.036;9.344;2023-03-01T00:08:26;-0.30;99.90
46364;DHT22;32071;49.036;9.344;2023-03-01T00:11:23;-0.20;99.90
46364;DHT22;32071;49.036;9.344;2023-03-01T00:13:49;-0.10;99.90
46364;DHT22;32071;49.036;9.344;2023-03-01T00:16:24;-0.10;99.90
46364;DHT22;32071;49.036;9.344;2023-03-01T00:18:50;0.00;99.90
46364;DHT22;32071;49.036;9.344;2023-03-01T00:21:16;-0.10;99.90
46364;DHT22;32071;49.036;9.344;2023-03-01T00:23:42;-0.10;99.90
46364;DHT22;32071;49.036;9.344;2023-03-01T00:26:10;-0.10;99.90
46364;DHT22;32071;49.036;9.344;2023-03-01T00:28:36;-0.20;99.90
46364;DHT22;32071;49.036;9.344;2023-03-01T00:31:17;-0.30;99.90
46364;DHT22;32071;49.036;9.344;2023-03-01T00:33:43;-0.40;99.90
46364;DHT22;32071;49.036;9.344;2023-03-01T00:36:10;-0.40;99.90
46364;DHT22;32071;49.036;9.344;2023-03-01T00:38:38;-0.40;99.90
46364;DHT22;32071;49.036;9.344;2023-03-01T00:41:09;-0.40;99.90
46364;DHT22;32071;49.036;9.344;2023-03-01T00:43:35;-0.50;99.90
46364;DHT22;32071;49.036;9.344;2023-03-01T00:46:06;-0.50;99.90
46364;DHT22;32071;49.036;9.344;2023-03-01T00:48:32;-0.50;99.90
46364;DHT22;32071;49.036;9.344;2023-03-01T00:51:05;-0.50;99.90
46364;DHT22;32071;49.036;9.344;2023-03-01T00:53:30;-0.50;99.90
46364;DHT22;32071;49.036;9.344;2023-03-01T00:55:57;-0.50;99.90
46364;DHT22;32071;49.036;9.344;2023-03-01T00:58:23;-0.50;99.90
46364;DHT22;32071;49.036;9.344;2023-03-01T01:00:49;-0.50;99.90
46364;DHT22;32071;49.036;9.344;2023-03-01T01:03:14;-0.50;99.90
46364;DHT22;32071;49.036;9.344;2023-03-01T01:05:40;-0.60;99.90
46364;DHT22;32071;49.036;9.344;2023-03-01T01:08:05;-0.60;99.90
46364;DHT22;32071;49.036;9.344;2023-03-01T01:10:34;-0.60;99.90
46364;DHT22;32071;49.036;9.344;2023-03-01T01:12:59;-0.60;99.90
46364;DHT22;32071;49.036;9.344;2023-03-01T01:15:25;-0.70;99.90
46364;DHT22;32071;49.036;9.344;2023-03-01T01:17:50;-0.70;99.90
46364;DHT22;32071;49.036;9.344;2023-03-01T01:20:16;-0.70;99.90
46364;DHT22;32071;49.036;9.344;2023-03-01T01:22:42;-0.70;99.90
46364;DHT22;32071;49.036;9.344;2023-03-01T01:25:08;-0.70;99.90
46364;DHT22;32071;49.036;9.344;2023-03-01T01:27:33;-0.70;99.90
46364;DHT22;32071;49.036;9.344;2023-03-01T01:29:59;-0.70;99.90
46364;DHT22;32071;49.036;9.344;2023-03-01T01:32:25;-0.70;99.90
46364;DHT22;32071;49.036;9.344;2023-03-01T01:34:50;-0.70;99.90
46364;DHT22;32071;49.036;9.344;2023-03-01T01:37:16;-0.70;99.90
46364;DHT22;32071;49.036;9.344;2023-03-01T01:39:41;-0.70;99.90
46364;DHT22;32071;49.036;9.344;2023-03-01T01:42:16;-0.80;99.90
46364;DHT22;32071;49.036;9.344;2023-03-01T01:44:44;-0.80;99.90
46364;DHT22;32071;49.036;9.344;2023-03-01T01:47:19;-0.80;99.90
46364;DHT22;32071;49.036;9.344;2023-03-01T01:49:55;-0.90;99.90
46364;DHT22;32071;49.036;9.344;2023-03-01T01:52:31;-0.90;99.90
46364;DHT22;32071;49.036;9.344;2023-03-01T01:55:14;-0.90;99.90
46364;DHT22;32071;49.036;9.344;2023-03-01T01:57:49;-0.90;99.90
46364;DHT22;32071;49.036;9.344;2023-03-01T02:00:22;-0.90;99.90
46364;DHT22;32071;49.036;9.344;2023-03-01T02:02:50;-0.90;99.90
46364;DHT22;32071;49.036;9.344;2023-03-01T02:05:24;-0.90;99.90
46364;DHT22;32071;49.036;9.344;2023-03-01T02:07:51;-0.90;99.90
46364;DHT22;32071;49.036;9.344;2023-03-01T02:10:17;-0.90;99.90
46364;DHT22;32071;49.036;9.344;2023-03-01T02:12:43;-0.90;99.90
46364;DHT22;32071;49.036;9.344;2023-03-01T02:15:09;-0.90;99.90
46364;DHT22;32071;49.036;9.344;2023-03-01T02:17:35;-1.00;99.90
46364;DHT22;32071;49.036;9.344;2023-03-01T02:22:33;-1.00;99.90
46364;DHT22;32071;49.036;9.344;2023-03-01T02:30:10;-1.00;99.90
46364;DHT22;32071;49.036;9.344;2023-03-01T02:32:39;-1.00;99.90
46364;DHT22;32071;49.036;9.344;2023-03-01T02:35:08;-1.00;99.90
46364;DHT22;32071;49.036;9.344;2023-03-01T02:37:35;-1.00;99.90
46364;DHT22;32071;49.036;9.344;2023-03-01T02:40:04;-1.00;99.90
46364;DHT22;32071;49.036;9.344;2023-03-01T02:42:35;-1.00;99.90
46364;DHT22;32071;49.036;9.344;2023-03-01T02:45:03;-1.00;99.90
46364;DHT22;32071;49.036;9.344;2023-03-01T02:47:28;-1.00;99.90
46364;DHT22;32071;49.036;9.344;2023-03-01T02:49:54;-1.00;99.90
46364;DHT22;32071;49.036;9.344;2023-03-01T02:55:17;-0.90;99.90
46364;DHT22;32071;49.036;9.344;2023-03-01T02:57:45;-0.90;99.90
46364;DHT22;32071;49.036;9.344;2023-03-01T03:00:17;-0.80;99.90
46364;DHT22;32071;49.036;9.344;2023-03-01T03:02:48;-0.80;99.90
46364;DHT22;32071;49.036;9.344;2023-03-01T03:05:23;-0.80;99.90
46364;DHT22;32071;49.036;9.344;2023-03-01T03:07:49;-0.70;99.90
46364;DHT22;32071;49.036;9.344;2023-03-01T03:10:29;-0.70;99.90
46364;DHT22;32071;49.036;9.344;2023-03-01T03:13:06;-0.70;99.90
46364;DHT22;32071;49.036;9.344;2023-03-01T03:15:34;-0.70;99.90
46364;DHT22;32071;49.036;9.344;2023-03-01T03:18:06;-0.70;99.90
46364;DHT22;32071;49.036;9.344;2023-03-01T03:20:33;-0.60;99.90
46364;DHT22;32071;49.036;9.344;2023-03-01T03:22:59;-0.60;99.90
46364;DHT22;32071;49.036;9.344;2023-03-01T03:25:25;-0.70;99.90
46364;DHT22;32071;49.036;9.344;2023-03-01T03:27:53;-0.70;99.90
46364;DHT22;32071;49.036;9.344;2023-03-01T03:30:30;-0.60;99.90
46364;DHT22;32071;49.036;9.344;2023-03-01T03:32:57;-0.60;99.90
46364;DHT22;32071;49.036;9.344;2023-03-01T03:35:29;-0.60;99.90
46364;DHT22;32071;49.036;9.344;2023-03-01T03:38:05;-0.70;99.90
46364;DHT22;32071;49.036;9.344;2023-03-01T03:40:34;-0.70;99.90
46364;DHT22;32071;49.036;9.344;2023-03-01T03:43:02;-0.70;99.90
46364;DHT22;32071;49.036;9.344;2023-03-01T03:45:28;-0.80;99.90
46364;DHT22;32071;49.036;9.344;2023-03-01T03:47:53;-0.80;99.90
46364;DHT22;32071;49.036;9.344;2023-03-01T03:50:19;-0.90;99.90
46364;DHT22;32071;49.036;9.344;2023-03-01T03:52:44;-0.90;99.90
46364;DHT22;32071;49.036;9.344;2023-03-01T03:55:11;-1.00;99.90
46364;DHT22;32071;49.036;9.344;2023-03-01T03:57:41;-1.00;99.90
46364;DHT22;32071;49.036;9.344;2023-03-01T04:00:09;-1.10;99.90
46364;DHT22;32071;49.036;9.344;2023-03-01T04:02:40;-1.10;99.90
46364;DHT22;32071;49.036;9.344;2023-03-01T04:05:06;-1.10;99.90
46364;DHT22;32071;49.036;9.344;2023-03-01T04:07:33;-1.20;99.90
46364;DHT22;32071;49.036;9.344;2023-03-01T04:09:59;-1.20;99.90
46364;DHT22;32071;49.036;9.344;2023-03-01T04:12:24;-1.20;99.90
46364;DHT22;32071;49.036;9.344;2023-03-01T04:14:50;-1.30;99.90
46364;DHT22;32071;49.036;9.344;2023-03-01T04:17:15;-1.30;99.90
46364;DHT22;32071;49.036;9.344;2023-03-01T04:19:41;-1.30;99.90
46364;DHT22;32071;49.036;9.344;2023-03-01T04:22:09;-1.30;99.90
46364;DHT22;32071;49.036;9.344;2023-03-01T04:24:36;-1.40;99.90
46364;DHT22;32071;49.036;9.344;2023-03-01T04:27:02;-1.40;99.90
46364;DHT22;32071;49.036;9.344;2023-03-01T04:29:28;-1.40;99.90
46364;DHT22;32071;49.036;9.344;2023-03-01T04:31:53;-1.50;99.90
46364;DHT22;32071;49.036;9.344;2023-03-01T04:34:19;-1.50;99.90
46364;DHT22;32071;49.036;9.344;2023-03-01T04:36:45;-1.50;99.90
46364;DHT22;32071;49.036;9.344;2023-03-01T04:39:10;-1.50;99.90
46364;DHT22;32071;49.036;9.344;2023-03-01T04:41:39;-1.60;99.90
46364;DHT22;32071;49.036;9.344;2023-03-01T04:44:06;-1.60;99.90
46364;DHT22;32071;49.036;9.344;2023-03-01T04:46:32;-1.60;99.90
46364;DHT22;32071;49.036;9.344;2023-03-01T04:48:57;-1.60;99.90
46364;DHT22;32071;49.036;9.344;2023-03-01T04:51:23;-1.60;99.90
46364;DHT22;32071;49.036;9.344;2023-03-01T04:53:49;-1.60;99.90
46364;DHT22;32071;49.036;9.344;2023-03-01T04:56:15;-1.60;99.90
46364;DHT22;32071;49.036;9.344;2023-03-01T04:58:43;-1.60;99.90
46364;DHT22;32071;49.036;9.344;2023-03-01T05:01:14;-1.60;99.90
46364;DHT22;32071;49.036;9.344;2023-03-01T05:03:44;-1.60;99.90
46364;DHT22;32071;49.036;9.344;2023-03-01T05:06:10;-1.60;99.90
46364;DHT22;32071;49.036;9.344;2023-03-01T05:08:38;-1.60;99.90
46364;DHT22;32071;49.036;9.344;2023-03-01T05:11:04;-1.60;99.90
46364;DHT22;32071;49.036;9.344;2023-03-01T05:13:30;-1.60;99.90
46364;DHT22;32071;49.036;9.344;2023-03-01T05:15:58;-1.60;99.90
46364;DHT22;32071;49.036;9.344;2023-03-01T05:18:26;-1.60;99.90
46364;DHT22;32071;49.036;9.344;2023-03-01T05:20:52;-1.50;99.90
46364;DHT22;32071;49.036;9.344;2023-03-01T05:23:22;-1.50;99.90
46364;DHT22;32071;49.036;9.344;2023-03-01T05:25:47;-1.60;99.90
46364;DHT22;32071;49.036;9.344;2023-03-01T05:28:14;-1.60;99.90
46364;DHT22;32071;49.036;9.344;2023-03-01T05:30:40;-1.60;99.90
46364;DHT22;32071;49.036;9.344;2023-03-01T05:33:07;-1.70;99.90
46364;DHT22;32071;49.036;9.344;2023-03-01T05:35:40;-1.70;99.90
46364;DHT22;32071;49.036;9.344;2023-03-01T05:38:06;-1.70;99.90
46364;DHT22;32071;49.036;9.344;2023-03-01T05:40:33;-1.80;99.90
46364;DHT22;32071;49.036;9.344;2023-03-01T05:42:59;-1.80;99.90
46364;DHT22;32071;49.036;9.344;2023-03-01T05:45:26;-1.80;99.90
46364;DHT22;32071;49.036;9.344;2023-03-01T05:47:52;-1.80;99.90
46364;DHT22;32071;49.036;9.344;2023-03-01T05:50:21;-1.80;99.90
46364;DHT22;32071;49.036;9.344;2023-03-01T05:52:57;-1.80;99.90
46364;DHT22;32071;49.036;9.344;2023-03-01T05:55:23;-1.80;99.90
46364;DHT22;32071;49.036;9.344;2023-03-01T05:57:49;-1.80;99.90
46364;DHT22;32071;49.036;9.344;2023-03-01T06:00:17;-1.70;99.90
46364;DHT22;32071;49.036;9.344;2023-03-01T06:02:43;-1.70;99.90
46364;DHT22;32071;49.036;9.344;2023-03-01T06:05:09;-1.60;99.90
46364;DHT22;32071;49.036;9.344;2023-03-01T06:07:35;-1.50;99.90
46364;DHT22;32071;49.036;9.344;2023-03-01T06:10:03;-1.40;99.90
46364;DHT22;32071;49.036;9.344;2023-03-01T06:12:32;-1.30;99.90
46364;DHT22;32071;49.036;9.344;2023-03-01T06:14:58;-1.20;99.90
46364;DHT22;32071;49.036;9.344;2023-03-01T06:17:24;-1.10;99.90
46364;DHT22;32071;49.036;9.344;2023-03-01T06:19:50;-1.10;99.90
46364;DHT22;32071;49.036;9.344;2023-03-01T06:22:15;-1.00;99.90
46364;DHT22;32071;49.036;9.344;2023-03-01T06:24:41;-1.10;99.90
46364;DHT22;32071;49.036;9.344;2023-03-01T06:27:06;-1.10;99.90
46364;DHT22;32071;49.036;9.344;2023-03-01T06:29:32;-1.10;99.90
46364;DHT22;32071;49.036;9.344;2023-03-01T06:31:58;-1.10;99.90
46364;DHT22;32071;49.036;9.344;2023-03-01T06:34:23;-1.20;99.90
46364;DHT22;32071;49.036;9.344;2023-03-01T06:36:49;-1.20;99.90
46364;DHT22;32071;49.036;9.344;2023-03-01T06:39:14;-1.20;99.90
46364;DHT22;32071;49.036;9.344;2023-03-01T06:41:40;-1.20;99.90
46364;DHT22;32071;49.036;9.344;2023-03-01T06:44:06;-1.10;99.90
46364;DHT22;32071;49.036;9.344;2023-03-01T06:46:31;-1.10;99.90
46364;DHT22;32071;49.036;9.344;2023-03-01T06:48:57;-1.10;99.90
46364;DHT22;32071;49.036;9.344;2023-03-01T06:51:22;-1.10;99.90
46364;DHT22;32071;49.036;9.344;2023-03-01T06:53:48;-1.10;99.90
46364;DHT22;32071;49.036;9.344;2023-03-01T06:56:13;-1.00;99.90
46364;DHT22;32071;49.036;9.344;2023-03-01T06:58:39;-1.00;99.90
46364;DHT22;32071;49.036;9.344;2023-03-01T07:01:08;-1.00;99.90
46364;DHT22;32071;49.036;9.344;2023-03-01T07:03:33;-1.00;99.90
46364;DHT22;32071;49.036;9.344;2023-03-01T07:05:59;-0.90;99.90
46364;DHT22;32071;49.036;9.344;2023-03-01T07:08:25;-0.90;99.90
46364;DHT22;32071;49.036;9.344;2023-03-01T07:10:59;-0.90;99.90
46364;DHT22;32071;49.036;9.344;2023-03-01T07:13:27;-0.80;99.90
46364;DHT22;32071;49.036;9.344;2023-03-01T07:15:52;-0.80;99.90
46364;DHT22;32071;49.036;9.344;2023-03-01T07:18:18;-0.70;99.90
46364;DHT22;32071;49.036;9.344;2023-03-01T07:20:44;-0.70;99.90
46364;DHT22;32071;49.036;9.344;2023-03-01T07:23:09;-0.60;99.90
46364;DHT22;32071;49.036;9.344;2023-03-01T07:25:35;-0.50;99.90
46364;DHT22;32071;49.036;9.344;2023-03-01T07:28:00;-0.50;99.90
46364;DHT22;32071;49.036;9.344;2023-03-01T07:30:26;-0.40;99.90
46364;DHT22;32071;49.036;9.344;2023-03-01T07:32:54;-0.30;99.90
46364;DHT22;32071;49.036;9.344;2023-03-01T07:35:21;-0.30;99.90
46364;DHT22;32071;49.036;9.344;2023-03-01T07:37:46;-0.20;99.90
46364;DHT22;32071;49.036;9.344;2023-03-01T07:40:12;-0.10;99.90
46364;DHT22;32071;49.036;9.344;2023-03-01T07:42:38;0.00;99.90
46364;DHT22;32071;49.036;9.344;2023-03-01T07:45:05;0.00;99.90
46364;DHT22;32071;49.036;9.344;2023-03-01T07:47:31;0.00;99.90
46364;DHT22;32071;49.036;9.344;2023-03-01T07:49:57;0.10;99.90
46364;DHT22;32071;49.036;9.344;2023-03-01T07:52:22;0.10;99.90
46364;DHT22;32071;49.036;9.344;2023-03-01T07:54:48;0.10;99.90
46364;DHT22;32071;49.036;9.344;2023-03-01T07:57:14;0.20;99.90
46364;DHT22;32071;49.036;9.344;2023-03-01T07:59:39;0.30;99.90
46364;DHT22;32071;49.036;9.344;2023-03-01T08:02:05;0.40;99.90
46364;DHT22;32071;49.036;9.344;2023-03-01T08:04:32;0.40;99.90
46364;DHT22;32071;49.036;9.344;2023-03-01T08:06:58;0.40;99.90
46364;DHT22;32071;49.036;9.344;2023-03-01T08:09:24;0.50;99.90
46364;DHT22;32071;49.036;9.344;2023-03-01T08:11:50;0.50;99.90
46364;DHT22;32071;49.036;9.344;2023-03-01T08:14:15;0.60;99.90
46364;DHT22;32071;49.036;9.344;2023-03-01T08:16:41;0.70;99.90
46364;DHT22;32071;49.036;9.344;2023-03-01T08:19:11;0.70;99.90
46364;DHT22;32071;49.036;9.344;2023-03-01T08:21:37;0.80;99.90
46364;DHT22;32071;49.036;9.344;2023-03-01T08:24:06;0.80;99.90
46364;DHT22;32071;49.036;9.344;2023-03-01T08:26:33;0.90;99.90
46364;DHT22;32071;49.036;9.344;2023-03-01T08:29:00;1.00;99.90
46364;DHT22;32071;49.036;9.344;2023-03-01T08:31:37;1.00;99.90
46364;DHT22;32071;49.036;9.344;2023-03-01T08:34:06;1.10;99.90
46364;DHT22;32071;49.036;9.344;2023-03-01T08:36:36;1.20;99.90
46364;DHT22;32071;49.036;9.344;2023-03-01T08:39:04;1.30;99.90
46364;DHT22;32071;49.036;9.344;2023-03-01T08:41:30;1.40;99.90
46364;DHT22;32071;49.036;9.344;2023-03-01T08:43:56;1.40;99.90
46364;DHT22;32071;49.036;9.344;2023-03-01T08:46:34;1.50;99.90
46364;DHT22;32071;49.036;9.344;2023-03-01T08:49:11;1.50;99.90
46364;DHT22;32071;49.036;9.344;2023-03-01T08:51:36;1.60;99.90
46364;DHT22;32071;49.036;9.344;2023-03-01T08:54:04;1.60;99.90
46364;DHT22;32071;49.036;9.344;2023-03-01T08:56:29;1.70;99.90
46364;DHT22;32071;49.036;9.344;2023-03-01T08:58:55;1.70;99.90
46364;DHT22;32071;49.036;9.344;2023-03-01T09:01:20;1.90;99.90
46364;DHT22;32071;49.036;9.344;2023-03-01T09:03:46;1.90;99.90
46364;DHT22;32071;49.036;9.344;2023-03-01T09:06:12;2.00;99.90
46364;DHT22;32071;49.036;9.344;2023-03-01T09:08:41;2.10;99.90
46364;DHT22;32071;49.036;9.344;2023-03-01T09:11:10;2.20;99.90
46364;DHT22;32071;49.036;9.344;2023-03-01T09:13:36;2.20;99.90
46364;DHT22;32071;49.036;9.344;2023-03-01T09:16:03;2.20;99.90
46364;DHT22;32071;49.036;9.344;2023-03-01T09:18:30;2.30;99.90
46364;DHT22;32071;49.036;9.344;2023-03-01T09:21:03;2.40;99.90
46364;DHT22;32071;49.036;9.344;2023-03-01T09:23:33;2.50;99.90
46364;DHT22;32071;49.036;9.344;2023-03-01T09:25:59;2.50;99.90
46364;DHT22;32071;49.036;9.344;2023-03-01T09:28:25;2.50;99.90
46364;DHT22;32071;49.036;9.344;2023-03-01T09:30:50;2.60;99.90
46364;DHT22;32071;49.036;9.344;2023-03-01T09:33:16;2.70;99.90
46364;DHT22;32071;49.036;9.344;2023-03-01T09:35:41;2.80;99.90
46364;DHT22;32071;49.036;9.344;2023-03-01T09:38:12;2.90;99.90
46364;DHT22;32071;49.036;9.344;2023-03-01T09:40:42;2.90;99.90
46364;DHT22;32071;49.036;9.344;2023-03-01T09:43:43;2.90;99.90
46364;DHT22;32071;49.036;9.344;2023-03-01T09:46:12;3.00;99.90
46364;DHT22;32071;49.036;9.344;2023-03-01T09:49:03;3.20;99.90
46364;DHT22;32071;49.036;9.344;2023-03-01T09:51:32;3.20;99.90
46364;DHT22;32071;49.036;9.344;2023-03-01T09:53:59;3.30;99.90
46364;DHT22;32071;49.036;9.344;2023-03-01T09:59:40;3.50;99.90
46364;DHT22;32071;49.036;9.344;2023-03-01T10:02:56;3.50;99.90
46364;DHT22;32071;49.036;9.344;2023-03-01T10:10:56;3.70;99.90
46364;DHT22;32071;49.036;9.344;2023-03-01T10:16:21;3.90;99.90
46364;DHT22;32071;49.036;9.344;2023-03-01T10:18:57;4.00;99.90
46364;DHT22;32071;49.036;9.344;2023-03-01T10:21:27;4.10;99.90
46364;DHT22;32071;49.036;9.344;2023-03-01T10:24:12;4.10;99.90
46364;DHT22;32071;49.036;9.344;2023-03-01T10:29:12;4.20;99.90
46364;DHT22;32071;49.036;9.344;2023-03-01T10:31:46;4.20;99.90
46364;DHT22;32071;49.036;9.344;2023-03-01T10:34:27;4.30;99.90
46364;DHT22;32071;49.036;9.344;2023-03-01T10:36:57;4.40;99.90
46364;DHT22;32071;49.036;9.344;2023-03-01T10:39:26;4.50;99.90
46364;DHT22;32071;49.036;9.344;2023-03-01T10:42:00;4.60;99.90
46364;DHT22;32071;49.036;9.344;2023-03-01T10:45:15;4.70;99.90
46364;DHT22;32071;49.036;9.344;2023-03-01T10:47:42;4.80;99.90
46364;DHT22;32071;49.036;9.344;2023-03-01T10:50:21;4.80;99.90
46364;DHT22;32071;49.036;9.344;2023-03-01T10:53:01;4.80;99.90
46364;DHT22;32071;49.036;9.344;2023-03-01T10:55:38;4.80;99.90
46364;DHT22;32071;49.036;9.344;2023-03-01T10:58:19;4.90;99.90
46364;DHT22;32071;49.036;9.344;2023-03-01T11:01:00;5.00;99.90
46364;DHT22;32071;49.036;9.344;2023-03-01T11:06:30;5.40;99.90
46364;DHT22;32071;49.036;9.344;2023-03-01T11:08:56;5.50;99.90
46364;DHT22;32071;49.036;9.344;2023-03-01T11:11:33;5.60;99.90
46364;DHT22;32071;49.036;9.344;2023-03-01T11:14:21;5.70;99.90
46364;DHT22;32071;49.036;9.344;2023-03-01T11:16:58;5.70;99.90
46364;DHT22;32071;49.036;9.344;2023-03-01T11:19:24;5.70;99.90
46364;DHT22;32071;49.036;9.344;2023-03-01T11:22:03;5.80;99.90
46364;DHT22;32071;49.036;9.344;2023-03-01T11:27:04;5.80;99.90
46364;DHT22;32071;49.036;9.344;2023-03-01T11:29:37;5.90;99.90
46364;DHT22;32071;49.036;9.344;2023-03-01T11:32:07;5.90;99.70
46364;DHT22;32071;49.036;9.344;2023-03-01T11:35:00;6.00;99.90
46364;DHT22;32071;49.036;9.344;2023-03-01T12:08:10;6.80;99.50
46364;DHT22;32071;49.036;9.344;2023-03-01T12:35:47;6.80;97.40
46364;DHT22;32071;49.036;9.344;2023-03-01T12:47:42;7.20;98.40
46364;DHT22;32071;49.036;9.344;2023-03-01T12:50:23;7.40;97.40
46364;DHT22;32071;49.036;9.344;2023-03-01T12:53:00;7.30;96.90
46364;DHT22;32071;49.036;9.344;2023-03-01T12:55:36;7.20;97.30
46364;DHT22;32071;49.036;9.344;2023-03-01T12:58:22;7.30;97.10
46364;DHT22;32071;49.036;9.344;2023-03-01T13:03:42;7.20;98.00
46364;DHT22;32071;49.036;9.344;2023-03-01T13:11:22;7.60;96.70
46364;DHT22;32071;49.036;9.344;2023-03-01T13:13:49;7.40;97.60
46364;DHT22;32071;49.036;9.344;2023-03-01T13:19:21;7.50;97.60
46364;DHT22;32071;49.036;9.344;2023-03-01T13:21:49;7.60;97.30
46364;DHT22;32071;49.036;9.344;2023-03-01T13:24:41;7.80;97.70
46364;DHT22;32071;49.036;9.344;2023-03-01T13:29:58;7.80;96.80
46364;DHT22;32071;49.036;9.344;2023-03-01T13:35:03;8.00;97.20
46364;DHT22;32071;49.036;9.344;2023-03-01T13:37:48;7.90;96.20
46364;DHT22;32071;49.036;9.344;2023-03-01T13:42:51;7.90;97.80
46364;DHT22;32071;49.036;9.344;2023-03-01T13:45:32;8.00;96.90
46364;DHT22;32071;49.036;9.344;2023-03-01T13:48:04;7.80;96.00
46364;DHT22;32071;49.036;9.344;2023-03-01T13:50:38;7.80;97.50
46364;DHT22;32071;49.036;9.344;2023-03-01T13:53:17;7.80;97.40
46364;DHT22;32071;49.036;9.344;2023-03-01T13:58:43;7.80;96.70
46364;DHT22;32071;49.036;9.344;2023-03-01T14:01:29;7.80;97.00
46364;DHT22;32071;49.036;9.344;2023-03-01T14:03:55;7.80;97.30
46364;DHT22;32071;49.036;9.344;2023-03-01T14:06:29;7.70;96.70
46364;DHT22;32071;49.036;9.344;2023-03-01T14:09:25;7.60;96.00
46364;DHT22;32071;49.036;9.344;2023-03-01T14:15:04;7.60;96.70
46364;DHT22;32071;49.036;9.344;2023-03-01T14:20:43;7.70;97.20
46364;DHT22;32071;49.036;9.344;2023-03-01T14:23:15;7.70;96.70
46364;DHT22;32071;49.036;9.344;2023-03-01T14:25:51;7.80;96.60
46364;DHT22;32071;49.036;9.344;2023-03-01T14:28:21;7.80;96.50
46364;DHT22;32071;49.036;9.344;2023-03-01T14:30:53;7.80;96.70
46364;DHT22;32071;49.036;9.344;2023-03-01T14:33:34;7.80;96.40
46364;DHT22;32071;49.036;9.344;2023-03-01T14:36:09;7.70;96.30
46364;DHT22;32071;49.036;9.344;2023-03-01T14:38:37;7.70;96.00
46364;DHT22;32071;49.036;9.344;2023-03-01T14:41:11;7.80;96.10
46364;DHT22;32071;49.036;9.344;2023-03-01T14:43:41;7.80;96.10
46364;DHT22;32071;49.036;9.344;2023-03-01T14:46:18;7.70;95.70
46364;DHT22;32071;49.036;9.344;2023-03-01T14:48:44;7.60;96.10
46364;DHT22;32071;49.036;9.344;2023-03-01T14:51:11;7.50;96.20
46364;DHT22;32071;49.036;9.344;2023-03-01T14:53:37;7.50;96.70
46364;DHT22;32071;49.036;9.344;2023-03-01T14:56:03;7.60;95.40
46364;DHT22;32071;49.036;9.344;2023-03-01T14:58:32;7.70;96.80
46364;DHT22;32071;49.036;9.344;2023-03-01T15:01:03;7.70;95.40
46364;DHT22;32071;49.036;9.344;2023-03-01T15:06:01;7.80;95.90
46364;DHT22;32071;49.036;9.344;2023-03-01T15:08:28;7.80;95.60
46364;DHT22;32071;49.036;9.344;2023-03-01T15:13:44;7.60;95.80
46364;DHT22;32071;49.036;9.344;2023-03-01T15:16:26;7.60;96.20
46364;DHT22;32071;49.036;9.344;2023-03-01T15:19:04;7.60;95.70
46364;DHT22;32071;49.036;9.344;2023-03-01T15:21:37;7.60;96.40
46364;DHT22;32071;49.036;9.344;2023-03-01T15:26:57;7.60;95.20
46364;DHT22;32071;49.036;9.344;2023-03-01T15:29:28;7.50;95.80
46364;DHT22;32071;49.036;9.344;2023-03-01T15:32:01;7.50;95.80
46364;DHT22;32071;49.036;9.344;2023-03-01T15:34:36;7.60;95.80
46364;DHT22;32071;49.036;9.344;2023-03-01T15:37:04;7.60;95.80
46364;DHT22;32071;49.036;9.344;2023-03-01T15:39:40;7.60;96.00
46364;DHT22;32071;49.036;9.344;2023-03-01T15:42:10;7.50;95.30
46364;DHT22;32071;49.036;9.344;2023-03-01T15:44:38;7.50;95.50
46364;DHT22;32071;49.036;9.344;2023-03-01T15:47:22;7.40;94.60
46364;DHT22;32071;49.036;9.344;2023-03-01T15:49:51;7.40;95.60
46364;DHT22;32071;49.036;9.344;2023-03-01T15:52:29;7.40;95.40
46364;DHT22;32071;49.036;9.344;2023-03-01T15:55:02;7.40;95.90
46364;DHT22;32071;49.036;9.344;2023-03-01T15:57:28;7.30;95.20
46364;DHT22;32071;49.036;9.344;2023-03-01T15:59:55;7.30;95.20
46364;DHT22;32071;49.036;9.344;2023-03-01T16:02:22;7.30;95.40
46364;DHT22;32071;49.036;9.344;2023-03-01T16:04:48;7.20;95.50
46364;DHT22;32071;49.036;9.344;2023-03-01T16:07:16;7.10;95.80
46364;DHT22;32071;49.036;9.344;2023-03-01T16:09:42;7.10;95.20
46364;DHT22;32071;49.036;9.344;2023-03-01T16:12:15;7.10;95.70
46364;DHT22;32071;49.036;9.344;2023-03-01T16:14:42;7.10;95.50
46364;DHT22;32071;49.036;9.344;2023-03-01T16:17:07;7.10;95.60
46364;DHT22;32071;49.036;9.344;2023-03-01T16:19:35;7.10;96.00
46364;DHT22;32071;49.036;9.344;2023-03-01T16:22:02;7.00;95.40
46364;DHT22;32071;49.036;9.344;2023-03-01T16:24:28;7.00;95.90
46364;DHT22;32071;49.036;9.344;2023-03-01T16:26:54;6.90;95.50
46364;DHT22;32071;49.036;9.344;2023-03-01T16:29:19;6.90;95.50
46364;DHT22;32071;49.036;9.344;2023-03-01T16:31:45;6.80;95.10
46364;DHT22;32071;49.036;9.344;2023-03-01T16:34:10;6.80;95.90
46364;DHT22;32071;49.036;9.344;2023-03-01T16:36:36;6.70;95.80
46364;DHT22;32071;49.036;9.344;2023-03-01T16:39:02;6.60;96.10
46364;DHT22;32071;49.036;9.344;2023-03-01T16:41:29;6.60;96.40
46364;DHT22;32071;49.036;9.344;2023-03-01T16:43:54;6.50;96.40
46364;DHT22;32071;49.036;9.344;2023-03-01T16:46:23;6.40;97.00
46364;DHT22;32071;49.036;9.344;2023-03-01T16:48:49;6.30;97.40
46364;DHT22;32071;49.036;9.344;2023-03-01T16:51:15;6.30;97.60
46364;DHT22;32071;49.036;9.344;2023-03-01T16:53:41;6.20;97.50
46364;DHT22;32071;49.036;9.344;2023-03-01T16:56:09;6.20;97.30
46364;DHT22;32071;49.036;9.344;2023-03-01T16:58:36;6.10;97.70
46364;DHT22;32071;49.036;9.344;2023-03-01T17:01:11;6.00;97.80
46364;DHT22;32071;49.036;9.344;2023-03-01T17:03:38;5.90;97.70
46364;DHT22;32071;49.036;9.344;2023-03-01T17:06:05;5.80;98.00
46364;DHT22;32071;49.036;9.344;2023-03-01T17:08:31;5.70;98.10
46364;DHT22;32071;49.036;9.344;2023-03-01T17:11:03;5.70;98.10
46364;DHT22;32071;49.036;9.344;2023-03-01T17:13:29;5.60;99.20
46364;DHT22;32071;49.036;9.344;2023-03-01T17:15:54;5.40;99.10
46364;DHT22;32071;49.036;9.344;2023-03-01T17:18:20;5.30;99.50
46364;DHT22;32071;49.036;9.344;2023-03-01T17:20:45;5.20;99.90
46364;DHT22;32071;49.036;9.344;2023-03-01T17:23:11;5.00;99.90
46364;DHT22;32071;49.036;9.344;2023-03-01T17:25:43;4.80;99.90
46364;DHT22;32071;49.036;9.344;2023-03-01T17:28:10;4.50;99.90
46364;DHT22;32071;49.036;9.344;2023-03-01T17:30:37;4.30;99.90
46364;DHT22;32071;49.036;9.344;2023-03-01T17:33:02;4.10;99.90
46364;DHT22;32071;49.036;9.344;2023-03-01T17:35:28;4.00;99.90
46364;DHT22;32071;49.036;9.344;2023-03-01T17:37:53;3.80;99.90
46364;DHT22;32071;49.036;9.344;2023-03-01T17:40:19;3.60;99.90
46364;DHT22;32071;49.036;9.344;2023-03-01T17:42:44;3.40;99.90
46364;DHT22;32071;49.036;9.344;2023-03-01T17:45:10;3.30;99.90
46364;DHT22;32071;49.036;9.344;2023-03-01T17:47:36;3.20;99.90
46364;DHT22;32071;49.036;9.344;2023-03-01T17:50:02;3.00;99.90
46364;DHT22;32071;49.036;9.344;2023-03-01T17:52:29;2.90;99.90
46364;DHT22;32071;49.036;9.344;2023-03-01T17:54:55;2.70;99.90
46364;DHT22;32071;49.036;9.344;2023-03-01T17:57:21;2.60;99.90
46364;DHT22;32071;49.036;9.344;2023-03-01T17:59:46;2.50;99.90
46364;DHT22;32071;49.036;9.344;2023-03-01T18:02:12;2.40;99.90
46364;DHT22;32071;49.036;9.344;2023-03-01T18:04:38;2.40;99.90